Time;durP1;ratioP1;P1;durP2;ratioP2;P2;SDS_P1;SDS_P2;PMS_P1;PMS_P2;Temp;Humidity;BMP_temperature;BMP_pressure;BME280_temperature;BME280_humidity;BME280_pressure;Samples;Min_cycle;Max_cycle;Signal;HPM_P1;HPM_P2
2023/10/20 00:00:18;;;;;;;27.23;15.73;;;7.70;99.90;;;;;;5135601;28;20262;-81
2023/10/20 00:02:45;;;;;;;28.93;16.47;;;7.70;99.90;;;;;;5144199;28;20232;-79
2023/10/20 00:05:13;;;;;;;29.17;16.00;;;7.70;99.90;;;;;;5123617;28;20289;-80
2023/10/20 00:07:40;;;;;;;29.83;16.23;;;7.70;99.90;;;;;;5122807;28;20620;-80
2023/10/20 00:10:11;;;;;;;25.03;15.70;;;7.70;99.90;;;;;;5133520;28;20339;-79
2023/10/20 00:12:39;;;;;;;32.50;17.07;;;7.70;99.90;;;;;;5134502;28;20227;-79
2023/10/20 00:15:09;;;;;;;30.07;16.13;;;7.70;99.90;;;;;;5137992;28;20588;-80
2023/10/20 00:17:35;;;;;;;32.27;17.57;;;7.70;99.90;;;;;;5133936;28;20654;-80
2023/10/20 00:20:03;;;;;;;30.90;16.40;;;7.60;99.90;;;;;;5134808;28;20235;-80
2023/10/20 00:22:30;;;;;;;31.87;17.60;;;7.60;99.90;;;;;;5142198;27;20286;-79
2023/10/20 00:24:57;;;;;;;30.57;16.83;;;7.70;99.90;;;;;;5142965;28;20211;-79
2023/10/20 00:27:23;;;;;;;34.60;16.83;;;7.60;99.90;;;;;;5131447;28;20193;-80
2023/10/20 00:29:52;;;;;;;34.07;18.53;;;7.70;99.90;;;;;;5128730;27;20280;-79
2023/10/20 00:32:20;;;;;;;32.57;18.07;;;7.60;99.90;;;;;;5144279;27;20216;-80
2023/10/20 00:34:47;;;;;;;35.43;18.07;;;7.60;99.90;;;;;;5136390;27;20608;-80
2023/10/20 00:37:14;;;;;;;33.13;17.97;;;7.60;99.90;;;;;;5139641;27;20659;-80
2023/10/20 00:39:40;;;;;;;35.43;17.27;;;7.60;99.90;;;;;;5130183;27;20232;-79
2023/10/20 00:42:07;;;;;;;33.97;18.30;;;7.60;99.90;;;;;;5131566;27;20208;-80
2023/10/20 00:44:34;;;;;;;35.07;17.13;;;7.60;99.90;;;;;;5137324;27;20204;-81
2023/10/20 00:47:03;;;;;;;36.40;19.10;;;7.70;99.90;;;;;;5147072;27;20590;-79
2023/10/20 00:49:32;;;;;;;36.77;18.60;;;7.60;99.90;;;;;;5145496;27;20590;-79
2023/10/20 00:51:59;;;;;;;37.57;19.63;;;7.60;99.90;;;;;;5142136;27;20787;-81
2023/10/20 00:54:26;;;;;;;34.87;18.57;;;7.60;99.90;;;;;;5137837;27;20211;-79
2023/10/20 00:56:53;;;;;;;35.60;16.90;;;7.60;99.90;;;;;;5139508;27;20257;-80
2023/10/20 00:59:20;;;;;;;42.07;20.43;;;7.60;99.90;;;;;;5147190;27;20251;-80
2023/10/20 01:01:47;;;;;;;40.13;19.57;;;7.60;99.90;;;;;;5147026;27;20206;-80
2023/10/20 01:04:15;;;;;;;43.57;21.60;;;7.70;99.90;;;;;;5147408;27;20562;-79
2023/10/20 01:06:43;;;;;;;42.40;20.90;;;7.60;99.90;;;;;;5147135;27;20236;-79
2023/10/20 01:09:10;;;;;;;41.77;19.63;;;7.60;99.90;;;;;;5146287;27;20220;-80
2023/10/20 01:11:37;;;;;;;39.53;20.03;;;7.60;99.90;;;;;;5134446;27;20212;-79
2023/10/20 01:14:05;;;;;;;43.97;21.43;;;7.60;99.90;;;;;;5127605;27;20278;-80
2023/10/20 01:16:32;;;;;;;39.67;19.67;;;7.50;99.90;;;;;;5135192;27;20197;-79
2023/10/20 01:19:01;;;;;;;37.43;19.27;;;7.50;99.90;;;;;;5145890;27;20216;-79
2023/10/20 01:21:29;;;;;;;39.03;17.60;;;7.60;99.90;;;;;;5140236;27;20199;-81
2023/10/20 01:23:57;;;;;;;36.07;19.03;;;7.50;99.90;;;;;;5139166;27;20215;-80
2023/10/20 01:26:24;;;;;;;41.80;19.77;;;7.50;99.90;;;;;;5139553;27;20192;-79
2023/10/20 01:28:50;;;;;;;33.20;17.67;;;7.50;99.90;;;;;;5145524;27;20627;-79
2023/10/20 01:31:17;;;;;;;36.93;17.23;;;7.50;99.90;;;;;;5145122;27;20315;-81
2023/10/20 01:33:44;;;;;;;32.63;17.20;;;7.50;99.90;;;;;;5136480;27;20212;-80
2023/10/20 01:36:11;;;;;;;32.70;16.40;;;7.50;99.90;;;;;;5125832;27;20278;-80
2023/10/20 01:38:38;;;;;;;32.00;16.77;;;7.50;99.90;;;;;;5125116;27;20205;-80
2023/10/20 01:41:06;;;;;;;30.83;16.17;;;7.50;99.90;;;;;;5130335;27;20292;-80
2023/10/20 01:43:33;;;;;;;28.40;14.70;;;7.60;99.90;;;;;;5131241;27;20598;-81
2023/10/20 01:46:02;;;;;;;33.47;17.17;;;7.60;99.90;;;;;;5139501;27;20296;-81
2023/10/20 01:48:28;;;;;;;33.90;16.40;;;7.50;99.90;;;;;;5128297;27;20201;-80
2023/10/20 01:50:55;;;;;;;34.37;16.07;;;7.50;99.90;;;;;;5131012;27;20227;-79
2023/10/20 01:53:22;;;;;;;34.93;16.93;;;7.50;99.90;;;;;;5138858;27;20208;-79
2023/10/20 01:55:49;;;;;;;35.50;18.00;;;7.50;99.90;;;;;;5134339;27;20208;-79
2023/10/20 01:58:17;;;;;;;29.40;16.00;;;7.50;99.90;;;;;;5144561;27;20761;-80
2023/10/20 02:00:45;;;;;;;36.80;18.40;;;7.50;99.90;;;;;;5130650;27;20307;-81
2023/10/20 02:03:11;;;;;;;37.37;19.40;;;7.50;99.90;;;;;;5141841;27;20192;-80
2023/10/20 02:05:38;;;;;;;34.40;17.43;;;7.50;99.90;;;;;;5138026;27;20207;-79
2023/10/20 02:08:06;;;;;;;38.50;17.30;;;7.50;99.90;;;;;;5131082;27;20224;-80
2023/10/20 02:10:33;;;;;;;37.87;18.43;;;7.50;99.90;;;;;;5128347;27;20232;-80
2023/10/20 02:13:00;;;;;;;37.03;18.50;;;7.50;99.90;;;;;;5140091;27;20224;-81
2023/10/20 02:15:28;;;;;;;38.27;19.27;;;7.60;99.90;;;;;;5128305;27;20204;-80
2023/10/20 02:17:55;;;;;;;38.70;19.00;;;7.50;99.90;;;;;;5144324;27;20196;-81
2023/10/20 02:20:23;;;;;;;41.37;21.03;;;7.50;99.90;;;;;;5144351;27;20702;-80
2023/10/20 02:22:50;;;;;;;40.77;18.67;;;7.50;99.90;;;;;;5134174;27;20208;-81
2023/10/20 02:25:18;;;;;;;37.23;17.90;;;7.50;99.90;;;;;;5132378;27;20212;-81
2023/10/20 02:27:45;;;;;;;35.10;16.93;;;7.50;99.90;;;;;;5144223;27;20567;-79
2023/10/20 02:30:14;;;;;;;35.20;16.73;;;7.50;99.90;;;;;;5136215;27;20288;-80
2023/10/20 02:32:43;;;;;;;34.80;16.60;;;7.50;99.90;;;;;;5143729;27;20231;-81
2023/10/20 02:35:11;;;;;;;35.23;17.80;;;7.60;99.90;;;;;;5137773;27;20212;-81
2023/10/20 02:37:38;;;;;;;34.97;17.47;;;7.50;99.90;;;;;;5131227;27;20200;-81
2023/10/20 02:40:05;;;;;;;34.90;16.63;;;7.60;99.90;;;;;;5127445;27;20303;-80
2023/10/20 02:42:32;;;;;;;36.37;17.70;;;7.50;99.90;;;;;;5144309;27;20238;-79
2023/10/20 02:44:59;;;;;;;38.33;18.33;;;7.50;99.90;;;;;;5137277;27;20200;-82
2023/10/20 02:47:26;;;;;;;36.97;18.93;;;7.60;99.90;;;;;;5136576;27;20196;-80
2023/10/20 02:49:56;;;;;;;36.43;16.57;;;7.50;99.90;;;;;;5144378;27;20777;-80
2023/10/20 02:52:23;;;;;;;34.37;16.47;;;7.60;99.90;;;;;;5138652;27;20681;-80
2023/10/20 02:54:53;;;;;;;38.13;17.10;;;7.50;99.90;;;;;;5144671;27;20192;-80
2023/10/20 02:57:21;;;;;;;36.63;18.20;;;7.60;99.90;;;;;;5139313;27;20197;-81
2023/10/20 02:59:48;;;;;;;36.97;17.50;;;7.70;99.90;;;;;;5132931;27;20675;-81
2023/10/20 03:02:16;;;;;;;37.33;18.13;;;7.70;99.90;;;;;;5133817;27;20201;-82
2023/10/20 03:04:43;;;;;;;37.20;16.60;;;7.70;99.90;;;;;;5124486;27;20193;-81
2023/10/20 03:07:11;;;;;;;33.40;14.77;;;7.70;99.90;;;;;;5143609;27;20210;-81
2023/10/20 03:09:37;;;;;;;33.00;16.67;;;7.70;99.90;;;;;;5123915;28;20247;-80
2023/10/20 03:12:05;;;;;;;33.33;16.33;;;7.80;99.90;;;;;;5127284;27;20224;-81
2023/10/20 03:14:33;;;;;;;35.77;16.23;;;7.80;99.90;;;;;;5140375;27;20203;-80
2023/10/20 03:17:00;;;;;;;36.13;16.33;;;7.80;99.90;;;;;;5140997;27;20223;-82
2023/10/20 03:19:27;;;;;;;38.50;16.63;;;7.80;99.90;;;;;;5142462;28;20216;-80
2023/10/20 03:21:54;;;;;;;36.43;17.50;;;7.70;99.90;;;;;;5142545;28;20196;-81
2023/10/20 03:24:22;;;;;;;36.60;18.30;;;7.70;99.90;;;;;;5126960;28;20243;-82
2023/10/20 03:26:49;;;;;;;34.00;15.07;;;7.80;99.90;;;;;;5123557;28;20198;-81
2023/10/20 03:29:16;;;;;;;30.43;14.33;;;7.80;99.90;;;;;;5137697;28;20644;-80
2023/10/20 03:31:43;;;;;;;34.53;17.03;;;7.80;99.90;;;;;;5134641;28;20213;-81
2023/10/20 03:34:09;;;;;;;34.93;15.43;;;7.80;99.90;;;;;;5142322;28;20193;-80
2023/10/20 03:36:36;;;;;;;33.80;15.97;;;7.80;99.90;;;;;;5142926;28;20283;-81
2023/10/20 03:39:14;;;;;;;32.40;15.33;;;7.90;99.90;;;;;;5129913;28;20292;-81
2023/10/20 03:41:42;;;;;;;32.30;15.37;;;7.90;99.90;;;;;;5140452;28;20608;-81
2023/10/20 03:44:09;;;;;;;33.63;15.60;;;7.80;99.90;;;;;;5143388;27;20200;-81
2023/10/20 03:46:43;;;;;;;33.70;15.70;;;7.80;99.90;;;;;;5142783;28;20204;-80
2023/10/20 03:49:10;;;;;;;32.73;16.03;;;7.90;99.90;;;;;;5136641;28;20224;-81
2023/10/20 03:51:38;;;;;;;33.47;17.27;;;7.90;99.90;;;;;;5138238;28;20240;-81
2023/10/20 03:54:05;;;;;;;30.77;15.63;;;7.80;99.90;;;;;;5136895;28;20207;-82
2023/10/20 03:56:34;;;;;;;31.87;16.20;;;8.00;99.90;;;;;;5136551;28;20211;-82
2023/10/20 03:59:03;;;;;;;33.80;15.73;;;8.00;99.90;;;;;;5141954;28;20255;-81
2023/10/20 04:01:29;;;;;;;36.20;16.10;;;7.90;99.90;;;;;;5141447;28;20239;-82
2023/10/20 04:03:56;;;;;;;30.67;14.30;;;7.90;99.90;;;;;;5135328;27;20721;-81
2023/10/20 04:06:23;;;;;;;34.43;16.83;;;8.00;99.90;;;;;;5144857;27;20197;-82
2023/10/20 04:08:50;;;;;;;32.63;16.27;;;8.00;99.90;;;;;;5143134;27;20263;-82
2023/10/20 04:11:17;;;;;;;35.60;17.57;;;7.90;99.90;;;;;;5136487;27;20292;-81
2023/10/20 04:13:44;;;;;;;31.87;16.80;;;8.00;99.90;;;;;;5130977;27;20216;-82
2023/10/20 04:16:13;;;;;;;26.90;14.70;;;8.00;99.90;;;;;;5143118;27;20573;-82
2023/10/20 04:18:40;;;;;;;28.37;14.53;;;8.00;99.90;;;;;;5146860;27;20632;-79
2023/10/20 04:21:07;;;;;;;30.17;14.47;;;7.90;99.90;;;;;;5137734;27;20215;-82
2023/10/20 04:23:34;;;;;;;31.70;15.93;;;7.90;99.90;;;;;;5143470;27;20279;-81
2023/10/20 04:26:02;;;;;;;31.27;15.67;;;7.90;99.90;;;;;;5136574;27;20572;-81
2023/10/20 04:28:32;;;;;;;27.73;13.90;;;7.90;99.90;;;;;;5142490;27;20266;-82
2023/10/20 04:42:19;;;;;;;23.87;11.27;;;8.00;99.90;;;;;;5133876;27;20203;-82
2023/10/20 04:47:59;;;;;;;29.60;14.03;;;7.90;99.90;;;;;;5142021;27;20184;-83
2023/10/20 04:50:58;;;;;;;28.67;14.10;;;7.90;99.90;;;;;;5140115;27;20227;-82
2023/10/20 04:53:44;;;;;;;29.20;13.13;;;7.80;99.90;;;;;;5126430;27;20220;-81
2023/10/20 04:58:58;;;;;;;26.80;12.73;;;7.80;99.90;;;;;;5130060;27;20220;-82
2023/10/20 05:01:27;;;;;;;25.23;13.33;;;7.80;99.90;;;;;;5135603;27;20609;-82
2023/10/20 05:03:57;;;;;;;25.67;12.70;;;7.80;99.90;;;;;;5139522;27;20201;-83
2023/10/20 05:06:27;;;;;;;23.17;13.47;;;7.80;99.90;;;;;;5132320;27;20719;-83
2023/10/20 05:08:54;;;;;;;26.63;12.93;;;7.80;99.90;;;;;;5134409;27;20224;-84
2023/10/20 05:11:21;;;;;;;22.57;10.77;;;7.80;99.90;;;;;;5139611;27;20628;-82
2023/10/20 05:13:48;;;;;;;20.67;10.67;;;7.80;99.90;;;;;;5131874;27;20222;-83
2023/10/20 05:16:14;;;;;;;20.77;11.13;;;8.00;99.90;;;;;;5129648;27;20253;-83
2023/10/20 05:18:42;;;;;;;22.67;11.57;;;7.70;99.90;;;;;;5133000;27;20263;-79
2023/10/20 05:21:11;;;;;;;20.93;11.23;;;7.70;99.90;;;;;;5131009;27;20211;-82
2023/10/20 05:23:41;;;;;;;18.90;9.60;;;7.70;99.90;;;;;;5132007;27;20207;-81
2023/10/20 05:26:09;;;;;;;17.23;8.70;;;7.70;99.90;;;;;;5128596;27;20287;-80
2023/10/20 05:28:36;;;;;;;20.03;9.70;;;7.60;99.90;;;;;;5133823;27;20212;-81
2023/10/20 05:31:03;;;;;;;23.60;12.20;;;7.60;99.90;;;;;;5139086;27;20266;-83
2023/10/20 05:33:30;;;;;;;23.87;12.33;;;7.80;99.90;;;;;;5124782;27;20312;-82
2023/10/20 05:36:01;;;;;;;21.50;10.67;;;7.70;99.90;;;;;;5136159;27;20227;-82
2023/10/20 05:38:28;;;;;;;20.43;11.50;;;7.60;99.90;;;;;;5136039;27;20199;-82
2023/10/20 05:41:00;;;;;;;18.93;10.77;;;7.50;99.90;;;;;;5140377;27;20212;-81
2023/10/20 05:43:27;;;;;;;19.60;10.43;;;7.60;99.90;;;;;;5133201;27;20620;-81
2023/10/20 05:45:54;;;;;;;18.93;10.97;;;7.50;99.90;;;;;;5135538;27;20203;-83
2023/10/20 05:48:21;;;;;;;18.50;10.63;;;7.60;99.90;;;;;;5135977;27;20200;-81
2023/10/20 05:50:49;;;;;;;21.53;11.00;;;7.50;99.90;;;;;;5131587;27;20220;-82
2023/10/20 05:53:16;;;;;;;18.80;10.80;;;7.60;99.90;;;;;;5135704;27;20686;-83
2023/10/20 05:55:43;;;;;;;17.63;9.97;;;7.50;99.90;;;;;;5132794;27;20886;-83
2023/10/20 05:58:11;;;;;;;16.90;8.77;;;7.50;99.90;;;;;;5127414;27;20228;-82
2023/10/20 06:00:38;;;;;;;19.53;9.63;;;7.50;99.90;;;;;;5133188;27;20231;-83
2023/10/20 06:03:07;;;;;;;16.70;8.97;;;7.50;99.90;;;;;;5136608;27;20200;-83
2023/10/20 06:05:34;;;;;;;15.17;8.60;;;7.50;99.90;;;;;;5133405;27;20201;-82
2023/10/20 06:08:00;;;;;;;15.27;8.43;;;7.50;99.90;;;;;;5131878;27;20208;-82
2023/10/20 06:10:28;;;;;;;15.23;8.17;;;7.50;99.90;;;;;;5130945;27;20306;-83
2023/10/20 06:12:55;;;;;;;15.03;8.97;;;7.50;99.90;;;;;;5133102;27;20241;-81
2023/10/20 06:15:24;;;;;;;16.70;10.03;;;7.40;99.90;;;;;;5128857;27;20207;-83
2023/10/20 06:17:51;;;;;;;16.80;9.67;;;7.40;99.90;;;;;;5138696;27;20550;-84
2023/10/20 06:20:19;;;;;;;13.47;7.70;;;7.50;99.90;;;;;;5134769;27;20224;-81
2023/10/20 06:22:46;;;;;;;15.27;8.60;;;7.40;99.90;;;;;;5129973;27;20200;-83
2023/10/20 06:25:13;;;;;;;15.07;8.97;;;7.40;99.90;;;;;;5138568;27;20275;-81
2023/10/20 06:27:44;;;;;;;13.47;8.03;;;7.40;99.90;;;;;;5135863;27;20204;-82
2023/10/20 06:30:19;;;;;;;11.63;7.33;;;7.40;99.90;;;;;;5116183;28;20229;-82
2023/10/20 06:32:56;;;;;;;16.87;8.87;;;7.30;99.90;;;;;;5129868;27;20223;-83
2023/10/20 06:35:32;;;;;;;15.20;9.13;;;7.40;99.90;;;;;;5132120;27;20674;-81
2023/10/20 06:38:11;;;;;;;14.17;8.13;;;7.40;99.90;;;;;;5132218;27;20683;-80
2023/10/20 06:40:39;;;;;;;15.07;8.00;;;7.40;99.90;;;;;;5132632;27;20231;-82
2023/10/20 06:43:06;;;;;;;15.47;8.57;;;7.40;99.90;;;;;;5130420;27;20195;-82
2023/10/20 06:45:34;;;;;;;14.20;9.17;;;7.40;99.90;;;;;;5137534;27;20674;-81
2023/10/20 06:48:02;;;;;;;11.63;6.73;;;7.40;99.90;;;;;;5135479;27;20339;-83
2023/10/20 06:50:31;;;;;;;13.83;7.13;;;7.30;99.90;;;;;;5121779;27;20220;-82
2023/10/20 06:52:57;;;;;;;12.97;8.37;;;7.50;99.90;;;;;;5130269;27;20247;-82
2023/10/20 06:55:25;;;;;;;12.50;7.43;;;7.30;99.90;;;;;;5123721;27;20235;-83
2023/10/20 06:57:53;;;;;;;14.90;8.43;;;7.30;99.90;;;;;;5135593;27;20210;-82
2023/10/20 07:00:20;;;;;;;13.83;7.77;;;7.30;99.90;;;;;;5136013;27;20307;-82
2023/10/20 07:02:48;;;;;;;11.97;7.10;;;7.40;99.90;;;;;;5135693;27;20673;-81
2023/10/20 07:05:17;;;;;;;11.73;7.37;;;7.30;99.90;;;;;;5127092;27;20212;-82
2023/10/20 07:07:44;;;;;;;9.77;6.60;;;7.30;99.90;;;;;;5130084;27;20216;-81
2023/10/20 07:10:11;;;;;;;13.07;7.40;;;7.40;99.90;;;;;;5126061;27;20563;-83
2023/10/20 07:12:38;;;;;;;12.37;7.07;;;7.20;99.90;;;;;;5133315;27;20211;-81
2023/10/20 07:15:06;;;;;;;12.13;7.50;;;7.30;99.90;;;;;;5124999;27;20204;-81
2023/10/20 07:17:34;;;;;;;12.03;7.50;;;7.30;99.90;;;;;;5131473;28;20670;-82
2023/10/20 07:20:04;;;;;;;11.07;6.43;;;7.40;99.90;;;;;;5126702;28;20227;-83
2023/10/20 07:22:32;;;;;;;11.93;7.77;;;7.30;99.90;;;;;;5133316;28;20200;-82
2023/10/20 07:24:59;;;;;;;11.07;6.70;;;7.30;99.90;;;;;;5131994;27;20200;-83
2023/10/20 07:27:26;;;;;;;9.33;5.97;;;7.30;99.90;;;;;;5128529;28;20200;-82
2023/10/20 07:29:53;;;;;;;11.60;6.80;;;7.30;99.90;;;;;;5130711;28;20250;-82
2023/10/20 07:32:21;;;;;;;9.57;6.47;;;7.40;99.90;;;;;;5129687;28;20291;-81
2023/10/20 07:34:48;;;;;;;10.33;5.83;;;7.30;99.90;;;;;;5138269;28;20220;-81
2023/10/20 07:37:14;;;;;;;10.40;6.23;;;7.30;99.90;;;;;;5131190;27;20295;-80
2023/10/20 07:39:43;;;;;;;9.80;6.13;;;7.30;99.90;;;;;;5132035;27;20223;-82
2023/10/20 07:42:10;;;;;;;7.27;4.60;;;7.30;99.90;;;;;;5136354;27;20291;-82
2023/10/20 07:44:37;;;;;;;9.73;6.03;;;7.30;99.90;;;;;;5131507;27;20209;-82
2023/10/20 07:47:06;;;;;;;8.23;6.03;;;7.30;99.90;;;;;;5130535;27;20292;-83
2023/10/20 07:49:33;;;;;;;8.70;5.53;;;7.30;99.90;;;;;;5138990;27;20272;-83
2023/10/20 07:52:00;;;;;;;8.80;4.97;;;7.40;99.90;;;;;;5141749;27;20212;-81
2023/10/20 07:54:27;;;;;;;7.23;4.90;;;7.40;99.90;;;;;;5132017;27;20239;-83
2023/10/20 07:56:55;;;;;;;7.20;4.80;;;7.30;99.90;;;;;;5135384;27;20632;-81
2023/10/20 07:59:22;;;;;;;10.50;4.90;;;7.30;99.90;;;;;;5133168;27;20312;-82
2023/10/20 08:01:49;;;;;;;5.23;3.50;;;7.50;99.90;;;;;;5138560;27;20196;-81
2023/10/20 08:04:16;;;;;;;6.23;4.30;;;7.30;99.90;;;;;;5134153;27;20661;-81
2023/10/20 08:06:43;;;;;;;5.83;4.33;;;7.40;99.90;;;;;;5138823;27;20282;-83
2023/10/20 08:09:12;;;;;;;8.67;5.23;;;7.40;99.90;;;;;;5137333;27;20221;-81
2023/10/20 08:11:39;;;;;;;6.70;4.40;;;7.40;99.90;;;;;;5140612;27;20215;-82
2023/10/20 08:14:07;;;;;;;7.27;4.10;;;7.40;99.90;;;;;;5140659;27;20244;-81
2023/10/20 08:16:34;;;;;;;7.87;5.13;;;7.30;99.90;;;;;;5138952;27;20272;-81
2023/10/20 08:19:01;;;;;;;7.57;4.50;;;7.40;99.90;;;;;;5143732;27;20218;-82
2023/10/20 08:21:29;;;;;;;5.73;4.23;;;7.40;99.90;;;;;;5134570;27;20592;-82
2023/10/20 08:23:57;;;;;;;8.43;5.20;;;7.40;99.90;;;;;;5131999;27;20209;-81
2023/10/20 08:26:25;;;;;;;6.10;4.20;;;7.40;99.90;;;;;;5139217;27;20653;-81
2023/10/20 08:28:52;;;;;;;9.13;5.87;;;7.40;99.90;;;;;;5134915;27;20232;-82
2023/10/20 08:31:21;;;;;;;6.23;3.80;;;7.40;99.90;;;;;;5134395;27;20204;-83
2023/10/20 08:33:51;;;;;;;6.80;5.23;;;7.50;99.90;;;;;;5136336;27;20224;-81
2023/10/20 08:36:21;;;;;;;7.83;4.90;;;7.50;99.90;;;;;;5141414;27;20208;-81
2023/10/20 08:38:50;;;;;;;8.80;5.00;;;7.50;99.90;;;;;;5137321;27;20229;-82
2023/10/20 08:41:18;;;;;;;6.67;5.03;;;7.50;99.90;;;;;;5133112;27;20231;-81
2023/10/20 08:43:46;;;;;;;6.83;4.67;;;7.50;99.90;;;;;;5138725;27;20264;-82
2023/10/20 08:46:16;;;;;;;7.63;4.30;;;7.50;99.90;;;;;;5138766;27;20227;-82
2023/10/20 08:48:44;;;;;;;5.77;4.03;;;7.50;99.90;;;;;;5137868;27;20216;-82
2023/10/20 08:51:13;;;;;;;8.10;4.73;;;7.50;99.90;;;;;;5131320;27;20219;-82
2023/10/20 08:53:41;;;;;;;7.30;3.30;;;7.50;99.90;;;;;;5137311;27;20690;-82
2023/10/20 08:56:09;;;;;;;6.23;3.87;;;7.50;99.90;;;;;;5134230;27;20251;-82
2023/10/20 08:58:37;;;;;;;4.83;3.40;;;7.60;99.90;;;;;;5133348;27;20207;-81
2023/10/20 09:01:05;;;;;;;6.40;3.57;;;7.60;99.90;;;;;;5142038;27;20201;-81
2023/10/20 09:03:39;;;;;;;6.73;3.70;;;7.60;99.90;;;;;;5134351;27;20192;-82
2023/10/20 09:06:10;;;;;;;4.47;3.00;;;7.60;99.90;;;;;;5128423;27;20197;-82
2023/10/20 09:08:37;;;;;;;5.43;3.80;;;7.60;99.90;;;;;;5137415;27;20298;-81
2023/10/20 09:11:07;;;;;;;3.70;2.50;;;7.50;99.90;;;;;;5136699;27;20228;-81
2023/10/20 09:13:36;;;;;;;6.67;3.50;;;7.50;99.90;;;;;;5133789;27;20226;-80
2023/10/20 09:16:07;;;;;;;3.97;3.40;;;7.50;99.90;;;;;;5129584;27;20213;-82
2023/10/20 09:18:41;;;;;;;3.80;3.00;;;7.50;99.90;;;;;;5134923;27;20203;-83
2023/10/20 09:21:10;;;;;;;3.63;2.10;;;7.50;99.90;;;;;;5137151;27;20231;-82
2023/10/20 09:23:36;;;;;;;5.20;3.27;;;7.50;99.90;;;;;;5130028;27;20204;-82
2023/10/20 09:26:04;;;;;;;4.43;2.80;;;7.50;99.90;;;;;;5134823;27;20205;-82
2023/10/20 09:28:31;;;;;;;2.40;2.20;;;7.60;99.90;;;;;;5131809;27;20682;-82
2023/10/20 09:30:59;;;;;;;4.77;2.80;;;7.50;99.90;;;;;;5126226;27;20211;-82
2023/10/20 09:33:26;;;;;;;6.47;3.20;;;7.50;99.90;;;;;;5140787;27;20204;-82
2023/10/20 09:35:53;;;;;;;3.10;2.80;;;7.50;99.90;;;;;;5133493;27;20237;-82
2023/10/20 09:38:26;;;;;;;2.57;2.30;;;7.50;99.90;;;;;;5126361;27;20209;-82
2023/10/20 09:41:05;;;;;;;5.27;2.93;;;7.50;99.90;;;;;;5132363;27;20260;-82
2023/10/20 09:43:35;;;;;;;4.33;2.80;;;7.60;99.90;;;;;;5134478;27;20206;-83
2023/10/20 09:46:28;;;;;;;3.63;2.50;;;7.50;99.90;;;;;;5133123;27;20204;-82
2023/10/20 09:49:00;;;;;;;3.93;2.87;;;7.50;99.90;;;;;;5134776;27;20307;-82
2023/10/20 09:51:27;;;;;;;5.30;3.73;;;7.50;99.90;;;;;;5138844;27;20206;-82
2023/10/20 09:53:56;;;;;;;4.33;3.10;;;7.50;99.90;;;;;;5133760;27;20219;-83
2023/10/20 09:56:23;;;;;;;4.13;2.93;;;7.60;99.90;;;;;;5138160;27;20211;-83
2023/10/20 09:58:57;;;;;;;4.37;3.40;;;7.60;99.90;;;;;;5128995;27;20220;-81
2023/10/20 10:01:24;;;;;;;3.90;2.77;;;7.60;99.90;;;;;;5129906;27;20204;-82
2023/10/20 10:04:01;;;;;;;3.10;2.80;;;7.60;99.90;;;;;;5134424;27;20201;-82
2023/10/20 10:06:35;;;;;;;5.63;3.57;;;7.60;99.90;;;;;;5135019;27;20192;-80
2023/10/20 10:09:04;;;;;;;5.17;3.53;;;7.50;99.90;;;;;;5130191;27;20224;-82
2023/10/20 10:11:34;;;;;;;5.73;3.27;;;7.50;99.90;;;;;;5130233;27;20224;-81
2023/10/20 10:14:04;;;;;;;5.30;3.33;;;7.60;99.90;;;;;;5133778;27;20249;-81
2023/10/20 10:16:32;;;;;;;4.20;2.97;;;7.60;99.90;;;;;;5138945;27;20192;-82
2023/10/20 10:19:08;;;;;;;7.73;3.80;;;7.60;99.90;;;;;;5133181;27;20224;-81
2023/10/20 10:21:39;;;;;;;4.53;2.90;;;7.60;99.90;;;;;;5133065;27;20206;-81
2023/10/20 10:24:15;;;;;;;6.20;3.43;;;7.60;99.90;;;;;;5131460;27;20680;-80
2023/10/20 10:26:53;;;;;;;4.93;3.10;;;7.50;99.90;;;;;;5133830;27;20650;-81
2023/10/20 10:29:22;;;;;;;5.53;3.00;;;7.50;99.90;;;;;;5140199;27;20686;-80
2023/10/20 10:31:49;;;;;;;5.40;3.10;;;7.50;99.90;;;;;;5132227;27;20200;-81
2023/10/20 10:34:16;;;;;;;5.10;2.37;;;7.50;99.90;;;;;;5131697;27;20220;-83
2023/10/20 10:36:47;;;;;;;4.97;3.30;;;7.50;99.90;;;;;;5129827;27;20706;-80
2023/10/20 10:39:27;;;;;;;7.97;3.80;;;7.60;99.90;;;;;;5138058;27;20220;-81
2023/10/20 10:41:54;;;;;;;4.80;3.40;;;7.50;99.90;;;;;;5129860;27;20207;-81
2023/10/20 10:44:22;;;;;;;5.70;3.50;;;7.50;99.90;;;;;;5133542;27;20671;-81
2023/10/20 10:46:51;;;;;;;4.43;3.03;;;7.50;99.90;;;;;;5128287;27;20230;-80
2023/10/20 10:49:18;;;;;;;3.00;2.60;;;7.40;99.90;;;;;;5134039;27;20224;-79
2023/10/20 10:51:46;;;;;;;4.73;3.27;;;7.30;99.90;;;;;;5131394;27;20208;-80
2023/10/20 10:54:13;;;;;;;2.93;2.10;;;7.50;99.90;;;;;;5129671;27;20241;-82
2023/10/20 10:56:42;;;;;;;4.77;3.07;;;7.50;99.90;;;;;;5130928;27;20215;-81
2023/10/20 10:59:10;;;;;;;3.87;2.77;;;7.50;99.90;;;;;;5134087;27;20289;-80
2023/10/20 11:01:39;;;;;;;5.17;3.03;;;7.50;99.90;;;;;;5133170;27;20211;-81
2023/10/20 11:04:08;;;;;;;5.30;2.83;;;7.50;99.90;;;;;;5127746;27;20215;-81
2023/10/20 11:06:37;;;;;;;1.97;1.77;;;7.40;99.90;;;;;;5123862;27;20625;-82
2023/10/20 11:09:08;;;;;;;3.00;1.77;;;7.50;99.90;;;;;;5130489;27;20224;-81
2023/10/20 11:11:39;;;;;;;4.33;2.70;;;7.40;99.90;;;;;;5131542;27;20281;-81
2023/10/20 11:14:07;;;;;;;2.07;1.87;;;7.40;99.90;;;;;;5127776;27;20606;-82
2023/10/20 11:16:36;;;;;;;4.73;2.83;;;7.40;99.90;;;;;;5130656;27;20263;-80
2023/10/20 11:19:03;;;;;;;4.43;2.70;;;7.30;99.90;;;;;;5128945;28;20220;-80
2023/10/20 11:21:31;;;;;;;3.47;1.87;;;7.30;99.90;;;;;;5132694;27;20690;-82
2023/10/20 11:23:58;;;;;;;2.77;2.33;;;7.30;99.90;;;;;;5134495;27;20201;-81
2023/10/20 11:26:25;;;;;;;2.60;1.83;;;7.30;99.90;;;;;;5124260;27;20655;-82
2023/10/20 11:28:52;;;;;;;3.70;2.23;;;7.40;99.90;;;;;;5134425;28;20224;-79
2023/10/20 11:31:20;;;;;;;3.27;2.50;;;7.30;99.90;;;;;;5129387;28;20284;-81
2023/10/20 11:33:47;;;;;;;4.27;2.40;;;7.30;99.90;;;;;;5129772;28;20745;-80
2023/10/20 11:36:14;;;;;;;4.53;2.70;;;7.30;99.90;;;;;;5127987;28;20284;-80
2023/10/20 11:38:41;;;;;;;4.40;2.60;;;7.40;99.90;;;;;;5134683;28;20197;-79
2023/10/20 11:41:08;;;;;;;2.93;2.50;;;7.40;99.90;;;;;;5130916;27;20249;-80
2023/10/20 11:43:37;;;;;;;2.37;2.17;;;7.40;99.90;;;;;;5132739;28;20201;-82
2023/10/20 11:46:05;;;;;;;3.63;1.93;;;7.30;99.90;;;;;;5123619;27;20200;-81
2023/10/20 11:48:34;;;;;;;2.13;1.70;;;7.40;99.90;;;;;;5130945;28;20204;-81
2023/10/20 11:51:00;;;;;;;1.70;1.33;;;7.40;99.90;;;;;;5132778;27;20670;-80
2023/10/20 11:53:27;;;;;;;4.97;1.80;;;7.40;99.90;;;;;;5132986;28;20206;-80
2023/10/20 11:55:54;;;;;;;3.63;2.20;;;7.40;99.90;;;;;;5136595;28;20251;-80
2023/10/20 11:58:21;;;;;;;2.70;1.73;;;7.40;99.90;;;;;;5138720;27;20642;-81
2023/10/20 12:00:48;;;;;;;2.00;1.50;;;7.40;99.90;;;;;;5134292;28;20284;-81
2023/10/20 12:03:15;;;;;;;4.20;2.20;;;7.40;99.90;;;;;;5122733;28;20570;-80
2023/10/20 12:05:46;;;;;;;3.87;1.47;;;7.50;99.90;;;;;;5139482;28;20215;-80
2023/10/20 12:08:13;;;;;;;1.67;1.20;;;7.50;99.90;;;;;;5135212;28;20200;-80
2023/10/20 12:10:40;;;;;;;3.60;1.83;;;7.40;99.90;;;;;;5138651;28;20228;-81
2023/10/20 12:13:07;;;;;;;2.10;1.50;;;7.40;99.90;;;;;;5122233;27;20232;-81
2023/10/20 12:15:34;;;;;;;3.20;1.93;;;7.40;99.90;;;;;;5125031;28;20256;-81
2023/10/20 12:18:00;;;;;;;2.93;2.10;;;7.40;99.90;;;;;;5136734;27;20327;-81
2023/10/20 12:20:27;;;;;;;3.93;2.37;;;7.40;99.90;;;;;;5124544;28;20280;-79
2023/10/20 12:22:58;;;;;;;3.73;2.43;;;7.40;99.90;;;;;;5133845;28;20288;-80
2023/10/20 12:25:25;;;;;;;3.43;2.57;;;7.50;99.90;;;;;;5126664;27;20226;-80
2023/10/20 12:27:52;;;;;;;2.90;2.07;;;7.40;99.90;;;;;;5125206;27;20197;-79
2023/10/20 12:30:20;;;;;;;2.93;2.37;;;7.30;99.90;;;;;;5124679;27;20213;-80
2023/10/20 12:32:46;;;;;;;3.23;1.90;;;7.30;99.90;;;;;;5135982;27;20196;-79
2023/10/20 12:35:14;;;;;;;2.20;1.63;;;7.40;99.90;;;;;;5129050;27;20229;-80
2023/10/20 12:37:40;;;;;;;2.97;2.03;;;7.40;99.90;;;;;;5136292;27;20329;-79
2023/10/20 12:40:13;;;;;;;2.17;1.97;;;7.30;99.90;;;;;;5123445;27;20729;-78
2023/10/20 12:42:40;;;;;;;2.33;2.07;;;7.40;99.90;;;;;;5133431;27;20201;-81
2023/10/20 12:45:09;;;;;;;2.33;1.03;;;7.30;99.90;;;;;;5133649;27;20685;-80
2023/10/20 12:47:36;;;;;;;2.03;1.83;;;7.30;99.90;;;;;;5126551;27;20208;-79
2023/10/20 12:50:06;;;;;;;2.97;2.43;;;7.30;99.90;;;;;;5139538;27;20219;-80
2023/10/20 12:52:33;;;;;;;2.73;2.30;;;7.30;99.90;;;;;;5123719;27;20217;-79
2023/10/20 12:55:00;;;;;;;2.77;1.70;;;7.30;99.90;;;;;;5132654;27;20238;-81
2023/10/20 12:57:28;;;;;;;2.80;2.10;;;7.30;99.90;;;;;;5139031;27;20197;-79
2023/10/20 12:59:55;;;;;;;3.50;2.10;;;7.30;99.90;;;;;;5127354;27;20256;-80
2023/10/20 13:02:22;;;;;;;3.13;2.40;;;7.30;99.90;;;;;;5137383;27;20203;-80
2023/10/20 13:04:48;;;;;;;3.90;2.13;;;7.20;99.90;;;;;;5126792;27;20283;-80
2023/10/20 13:07:15;;;;;;;4.07;2.30;;;7.20;99.90;;;;;;5133727;27;20204;-80
2023/10/20 13:09:42;;;;;;;1.57;1.40;;;7.20;99.90;;;;;;5125325;27;20266;-80